Data for 05/25/2018

Time Sea-Level Adjusted Pressure Absolute Pressure Temperature Relative Humidity Dew Point   
(mb) (inHg) (mb) (inHg) (C) (F) (%) (C) (F)
00:05 1020 30.12 849 25.07 14.3 57.7 57 6.1 42.9
00:10 1020 30.12 849 25.07 14.5 58.1 58 6.4 43.5
00:15 1020 30.12 849 25.07 14.4 58 58 6.4 43.6
00:20 1020 30.12 849 25.07 14.4 57.8 59 6.4 43.6
00:25 1020 30.12 849 25.07 14 57.2 63 7.2 45
00:30 1020 30.12 849 25.07 13.2 55.7 65 6.7 44.1
00:35 1020 30.12 849 25.07 13.2 55.7 65 6.7 44.1
00:40 1020 30.12 849 25.07 13.2 55.8 65 6.8 44.2
00:45 1020 30.12 849 25.07 13.2 55.8 64 6.7 44.1
00:50 1020 30.12 849 25.07 13.4 56.1 62 6.3 43.3
00:55 1020 30.12 849 25.07 13.7 56.6 63 6.7 44.1
01:00 1020 30.12 849 25.07 13.9 57 61 6.6 43.8
01:05 1020 30.12 849 25.07 13.6 56.4 65 7.1 44.8
01:10 1020 30.12 849 25.07 12.6 54.7 70 7.2 45
01:15 1020 30.12 849 25.07 12.2 53.9 69 6.6 43.9
01:20 1020 30.12 849 25.07 12.7 54.8 67 6.7 44.1
01:25 1020 30.12 849 25.07 12.9 55.2 65 6.6 43.9
01:30 1020 30.12 849 25.07 13.1 55.5 65 6.7 44.1
01:35 1020 30.12 849 25.07 13.1 55.5 66 6.9 44.5
01:40 1020 30.12 849 25.07 12.6 54.7 69 7.1 44.8
01:45 1020 30.12 849 25.07 11.9 53.3 71 6.8 44.2
01:50 1020 30.12 849 25.07 11.7 53 71 6.6 43.8
01:55 1020 30.12 849 25.07 12.3 54.2 67 6.4 43.6
02:00 1020 30.12 849 25.07 12.5 54.6 67 6.7 44
02:05 1020 30.12 849 25.07 12.3 54.1 68 6.6 43.8
02:10 1020 30.12 849 25.07 12.2 53.9 68 6.4 43.5
02:15 1020 30.12 849 25.07 12.2 54 68 6.4 43.6
02:20 1020 30.12 849 25.07 12.2 54 67 6.4 43.4
02:25 1020 30.12 849 25.07 12.2 54 67 6.4 43.5
02:30 1020 30.12 849 25.07 12.1 53.7 68 6.3 43.3
02:35 1020 30.12 849 25.07 12 53.5 66 5.8 42.4
02:40 1020 30.12 849 25.07 12 53.5 66 5.8 42.5
02:45 1020 30.12 849 25.07 11.7 53 69 6.3 43.3
02:50 1020 30.12 849 25.07 11.1 51.9 70 5.9 42.7
02:55 1020 30.12 849 25.07 10.9 51.7 71 5.9 42.7
03:00 1020 30.12 849 25.07 10.6 51.1 72 5.9 42.6
03:05 1020 30.12 849 25.07 10.8 51.5 70 5.6 42.1
03:10 1020 30.12 849 25.07 11.2 52.2 69 5.8 42.4
03:15 1020 30.12 849 25.07 11.1 51.9 71 6.1 43
03:20 1020 30.12 849 25.07 10.7 51.3 73 6.1 43.1
03:25 1020 30.12 849 25.07 10.7 51.2 73 6 42.8
03:30 1020 30.12 849 25.07 10.9 51.5 72 6 42.8
03:35 1020 30.12 849 25.07 11 51.8 71 5.9 42.7
03:40 1020 30.12 849 25.07 10.9 51.6 71 5.9 42.6
03:45 1020 30.12 849 25.07 10.8 51.5 71 5.9 42.6
03:50 1020 30.12 849 25.07 10.9 51.5 71 5.9 42.7
03:55 1020 30.12 849 25.07 10.7 51.3 71 5.8 42.4
04:00 1020 30.12 849 25.07 10.7 51.2 71 5.7 42.3
04:05 1020 30.12 849 25.07 10.8 51.4 70 5.6 42.1
04:10 1020 30.12 849 25.07 10.8 51.5 70 5.6 42.1
04:15 1020 30.12 849 25.07 10.9 51.5 70 5.6 42.1
04:20 1020 30.12 849 25.07 10.7 51.2 71 5.6 42
04:25 1020 30.12 849 25.07 10.7 51.2 70 5.4 41.8
04:30 1020 30.12 849 25.07 10.9 51.6 69 5.5 41.9
04:35 1020 30.12 849 25.07 11 51.8 68 5.3 41.6
04:40 1020 30.12 849 25.07 10.9 51.6 69 5.4 41.7
04:45 1020 30.12 849 25.07 10.6 51.1 69 5.2 41.4
04:50 1020 30.12 849 25.07 10.4 50.8 70 5.2 41.3
04:55 1020 30.12 849 25.07 10.4 50.7 70 5.1 41.3
05:00 1020 30.12 849 25.07 10.1 50.2 71 5.2 41.4
05:05 1020 30.12 849 25.07 9.7 49.5 73 5.1 41.2
05:10 1020 30.12 849 25.07 9.7 49.4 72 5 40.9
05:15 1020 30.12 849 25.07 9.6 49.2 73 5 40.9
05:20 1020 30.12 849 25.07 9.7 49.5 72 4.9 40.8
05:25 1020 30.12 849 25.07 9.8 49.7 72 5 41
05:30 1020 30.12 849 25.07 9.8 49.7 71 4.9 40.8
05:35 1020 30.12 849 25.07 9.9 49.9 71 5 41
05:40 1020 30.12 849 25.07 9.8 49.7 73 5.2 41.4
05:45 1020 30.12 849 25.07 9.6 49.3 73 5.1 41.1
05:50 1020 30.12 849 25.07 9.9 49.8 71 4.9 40.8
05:55 1020 30.12 849 25.07 10.1 50.2 70 5 41
06:00 1020 30.12 849 25.07 10.4 50.7 70 5.1 41.2
06:05 1020 30.12 849 25.07 10.1 50.3 70 4.9 40.8
06:10 1020 30.12 849 25.07 10.4 50.7 68 4.7 40.4
06:15 1020 30.12 849 25.07 10.7 51.3 67 4.9 40.8
06:20 1020 30.12 849 25.07 10.6 51 69 5.1 41.2
06:25 1020 30.12 849 25.07 10.3 50.5 68 4.8 40.6
06:30 1020 30.12 849 25.07 10.4 50.8 69 5 40.9
06:35 1020 30.12 849 25.07 10.6 51.1 67 4.8 40.6
06:40 1020 30.12 849 25.07 10.8 51.4 67 5 40.9
06:45 1020 30.12 849 25.07 10.8 51.5 66 4.9 40.8
06:50 1020 30.12 849 25.07 11.1 51.9 66 4.9 40.9
06:55 1020 30.12 849 25.07 11.3 52.3 66 5.1 41.2
07:00 1020 30.12 849 25.07 11.3 52.3 67 5.5 41.9
07:05 1020 30.12 849 25.07 11.3 52.4 67 5.4 41.7
07:10 1020 30.12 849 25.07 11.5 52.7 67 5.6 42
07:15 1020 30.12 849 25.07 11.9 53.4 65 5.6 42
07:20 1020 30.12 849 25.07 12.4 54.4 63 5.6 42.1
07:25 1020 30.12 849 25.07 13.1 55.7 61 5.7 42.3
07:30 1020 30.12 849 25.07 13.4 56.1 61 6.2 43.1
07:35 1020 30.12 849 25.07 13.5 56.2 60 5.9 42.5
07:40 1020 30.12 849 25.07 13.4 56.2 61 6.1 42.9
07:45 1020 30.12 849 25.07 13.7 56.7 61 6.4 43.5
07:50 1020 30.12 849 25.07 14.2 57.5 58 6.2 43.2
07:55 1020 30.12 849 25.07 14.9 58.8 56 6.3 43.4
08:00 1020 30.12 849 25.07 15 59 58 6.8 44.2
08:05 1020 30.12 849 25.07 15.3 59.6 55 6.5 43.6
08:10 1020 30.12 849 25.07 16.1 61 52 6.4 43.6
08:15 1020 30.12 849 25.07 16.5 61.8 51 6.5 43.8
08:20 1020 30.12 849 25.07 16.4 61.5 52 6.5 43.7
08:25 1020 30.12 849 25.07 17.2 62.9 52 7.2 45
08:30 1020 30.12 849 25.07 17.4 63.3 51 7.4 45.2
08:35 1020 30.12 849 25.07 17.6 63.8 50 7.2 45
08:40 1020 30.12 849 25.07 17.6 63.7 51 7.3 45.2
08:45 1020 30.12 849 25.07 17.6 63.6 50 7.1 44.7
08:50 1020 30.12 849 25.07 18 64.5 48 7 44.6
08:55 1020 30.12 849 25.07 18.1 64.6 49 7.2 45
09:00 1020 30.12 849 25.07 17.9 64.3 48 7 44.7
09:05 1020 30.12 849 25.07 17.8 64 50 7.2 45
09:10 1020 30.12 849 25.07 18 64.3 47 6.7 44
09:15 1020 30.12 849 25.07 18.7 65.6 45 6.7 44.1
09:20 1020 30.12 849 25.07 18.7 65.7 45 6.7 44.1
09:25 1020 30.12 849 25.07 19.1 66.3 45 6.9 44.4
09:30 1020 30.12 849 25.07 19.1 66.4 43 6.3 43.4
09:35 1019 30.09 849 25.07 19.4 66.9 42 6.4 43.5
09:40 1019 30.09 849 25.07 19.5 67.2 41 6 42.8
09:45 1019 30.09 849 25.07 20 68 40 6.1 43
09:50 1019 30.09 849 25.07 19.8 67.6 42 6.6 43.9
09:55 1019 30.09 849 25.07 19.4 66.9 43 6.5 43.7
10:00 1019 30.09 849 25.07 20.4 68.7 39 5.9 42.7
10:05 1019 30.09 849 25.07 20.7 69.2 39 6.2 43.2
10:10 1019 30.09 849 25.07 20.7 69.3 37 5.6 42.2
10:15 1019 30.09 848 25.04 19.7 67.5 42 6.5 43.7
10:20 1019 30.09 848 25.04 19 66.2 44 6.6 43.8
10:25 1019 30.09 848 25.04 19.7 67.4 41 6.2 43.1
10:30 1019 30.09 848 25.04 19.1 66.4 44 6.6 43.9
10:35 1019 30.09 848 25.04 19.6 67.3 44 7.1 44.7
10:40 1019 30.09 848 25.04 20.4 68.8 40 6.6 43.9
10:45 1019 30.09 848 25.04 20.8 69.4 37 5.8 42.5
10:50 1019 30.09 848 25.04 19.6 67.2 43 6.9 44.4
10:55 1019 30.09 848 25.04 19.7 67.4 43 7.1 44.7
11:00 1019 30.09 848 25.04 19.1 66.4 43 6.5 43.7
11:05 1019 30.09 848 25.04 20.5 68.8 40 6.4 43.6
11:10 1019 30.09 848 25.04 21.2 70.1 35 5.3 41.6
11:15 1019 30.09 848 25.04 21.8 71.2 34 5.3 41.6
11:20 1019 30.09 848 25.04 21.3 70.4 34 5.1 41.1
11:25 1019 30.09 848 25.04 21.4 70.5 35 5.5 42
11:30 1019 30.09 848 25.04 21 69.8 38 6.4 43.4
11:35 1019 30.09 848 25.04 20.9 69.6 36 5.5 41.9
11:40 1019 30.09 848 25.04 21.9 71.4 32 4.9 40.8
11:45 1019 30.09 848 25.04 21.7 71 37 6.4 43.5
11:50 1019 30.09 848 25.04 21.6 70.8 35 5.8 42.4
11:55 1019 30.09 848 25.04 21.2 70.2 35 5.2 41.3
12:00 1019 30.09 848 25.04 21.5 70.6 34 5.2 41.4
12:05 1019 30.09 848 25.04 21.1 70.1 34 4.9 40.7
12:10 1019 30.09 848 25.04 22.1 71.9 33 5.5 41.9
12:15 1019 30.09 848 25.04 22.1 71.7 34 5.8 42.5
12:20 1018 30.06 848 25.04 22.5 72.5 33 5.4 41.8
12:25 1018 30.06 848 25.04 22.2 71.9 33 5.5 42
12:30 1018 30.06 848 25.04 22.1 71.8 32 4.7 40.5
12:35 1018 30.06 847 25.01 23 73.4 32 5.6 42
12:40 1018 30.06 847 25.01 22.8 73.1 32 5.5 42
12:45 1018 30.06 847 25.01 23.1 73.5 31 5.1 41.3
12:50 1018 30.06 847 25.01 23 73.5 31 5.4 41.7
12:55 1018 30.06 847 25.01 23.2 73.8 30 5 40.9
13:00 1018 30.06 847 25.01 23.8 74.9 30 5.4 41.8
13:05 1018 30.06 847 25.01 22.8 73.1 31 5.1 41.2
13:10 1018 30.06 847 25.01 22.5 72.4 32 5.1 41.2
13:15 1018 30.06 847 25.01 23.6 74.4 30 5.1 41.2
13:20 1018 30.06 847 25.01 24.1 75.4 30 5.8 42.4
13:25 1018 30.06 847 25.01 24 75.3 29 5.3 41.6
13:30 1018 30.06 847 25.01 23.5 74.4 32 6 42.7
13:35 1018 30.06 847 25.01 22.9 73.3 30 4.5 40.1
13:40 1018 30.06 847 25.01 23.7 74.6 30 5.5 41.8
13:45 1018 30.06 847 25.01 24.2 75.6 28 4.6 40.3
13:50 1018 30.06 847 25.01 24.7 76.5 28 5.4 41.8
13:55 1018 30.06 847 25.01 24.6 76.2 28 5.2 41.3
14:00 1018 30.06 847 25.01 24.6 76.2 29 5.6 42.1
14:05 1017 30.03 847 25.01 24.1 75.4 29 5.3 41.6
14:10 1017 30.03 847 25.01 24.2 75.5 29 5.3 41.6
14:15 1017 30.03 847 25.01 24.4 76 27 4.4 40
14:20 1017 30.03 846 24.98 25 77 28 5.5 41.9
14:25 1017 30.03 846 24.98 25.1 77.1 28 5.4 41.6
14:30 1017 30.03 846 24.98 24.2 75.6 28 4.7 40.5
14:35 1017 30.03 846 24.98 24.6 76.3 28 5 41
14:40 1017 30.03 846 24.98 24.4 75.9 29 5.2 41.4
14:45 1017 30.03 846 24.98 25.2 77.4 28 5.7 42.2
14:50 1017 30.03 846 24.98 25.2 77.3 28 5.5 41.9
14:55 1017 30.03 846 24.98 25.3 77.5 28 5.6 42
15:00 1017 30.03 846 24.98 25.2 77.4 28 5.5 41.9
15:05 1017 30.03 846 24.98 25.3 77.5 27 5.1 41.1
15:10 1017 30.03 846 24.98 25.9 78.7 26 5.2 41.3
15:15 1017 30.03 846 24.98 26.6 79.9 25 5.4 41.8
15:20 1017 30.03 846 24.98 25.4 77.7 28 5.8 42.4
15:25 1016 30 846 24.98 24.6 76.3 28 5.2 41.3
15:30 1016 30 846 24.98 25.4 77.6 27 5.4 41.7
15:35 1016 30 846 24.98 25.8 78.4 27 5.6 42.1
15:40 1016 30 845 24.95 25.2 77.3 29 6 42.7
15:45 1016 30 845 24.95 24.5 76.2 29 5.6 42.1
15:50 1016 30 845 24.95 24.8 76.6 29 5.7 42.3
15:55 1016 30 845 24.95 24.9 76.8 29 5.9 42.5
16:00 1016 30 845 24.95 25 77 27 5 41
16:05 1016 30 845 24.95 24.4 75.9 30 6 42.7
16:10 1016 30 845 24.95 23.7 74.6 30 5.4 41.7
16:15 1016 30 845 24.95 23.8 74.8 29 4.9 40.9
16:20 1016 30 845 24.95 24.2 75.5 30 5.6 42.1
16:25 1016 30 845 24.95 23.7 74.7 30 5.4 41.6
16:30 1016 30 845 24.95 23.4 74 30 5.3 41.5
16:35 1016 30 845 24.95 23.6 74.5 29 4.8 40.6
16:40 1016 30 845 24.95 23.9 75.1 29 4.8 40.6
16:45 1016 30 845 24.95 23.9 75.1 29 5 41
16:50 1016 30 845 24.95 23.6 74.5 30 5.2 41.3
16:55 1016 30 845 24.95 23.5 74.2 30 5.1 41.2
17:00 1016 30 845 24.95 23.4 74.2 32 5.8 42.5
17:05 1016 30 845 24.95 22.6 72.7 36 6.9 44.5
17:10 1016 30 845 24.95 21.6 70.8 36 6.2 43.1
17:15 1016 30 846 24.98 21.5 70.6 32 4.5 40
17:20 1016 30 846 24.98 21.4 70.4 33 4.7 40.5
17:25 1017 30.03 846 24.98 21.3 70.4 36 5.8 42.4
17:30 1017 30.03 846 24.98 20.7 69.2 38 6 42.8
17:35 1016 30 846 24.98 20.2 68.4 38 5.7 42.2
17:40 1016 30 846 24.98 19.8 67.7 39 5.8 42.4
17:45 1016 30 845 24.95 19.7 67.5 39 5.7 42.2
17:50 1016 30 845 24.95 19.2 66.6 40 5.6 42
17:55 1016 30 845 24.95 19.5 67.1 45 7.4 45.4
18:00 1016 30 845 24.95 19.6 67.2 42 6.4 43.4
18:05 1016 30 845 24.95 20 68 39 5.7 42.3
18:10 1016 30 845 24.95 21.1 69.9 36 5.4 41.8
18:15 1016 30 845 24.95 21.1 70 34 4.8 40.7
18:20 1016 30 845 24.95 21.5 70.7 34 5.4 41.7
18:25 1016 30 845 24.95 21.3 70.3 35 5.5 42
18:30 1016 30 845 24.95 21 69.8 35 5.3 41.5
18:35 1016 30 845 24.95 21.1 70 33 4.5 40
18:40 1015 29.97 845 24.95 21.4 70.4 34 5.1 41.3
18:45 1015 29.97 844 24.92 21.1 70 35 5.2 41.3
18:50 1015 29.97 844 24.92 21 69.9 36 5.4 41.7
18:55 1015 29.97 844 24.92 20.9 69.6 38 6.3 43.4
19:00 1015 29.97 844 24.92 20.4 68.7 39 6.2 43.2
19:05 1015 29.97 844 24.92 20.2 68.4 38 5.6 42.2
19:10 1015 29.97 844 24.92 20.2 68.3 38 5.4 41.7
19:15 1015 29.97 844 24.92 20.2 68.3 38 5.4 41.7
19:20 1015 29.97 844 24.92 20.2 68.3 38 5.5 42
19:25 1015 29.97 844 24.92 20.1 68.2 38 5.6 42
19:30 1015 29.97 844 24.92 20.2 68.4 38 5.7 42.3
19:35 1015 29.97 844 24.92 20.3 68.5 39 6.1 43
19:40 1015 29.97 844 24.92 20.3 68.5 39 6 42.7
19:45 1015 29.97 844 24.92 20.4 68.7 40 6.3 43.4
19:50 1015 29.97 844 24.92 20.4 68.6 40 6.4 43.5
19:55 1015 29.97 844 24.92 20.4 68.7 40 6.6 43.9
20:00 1015 29.97 844 24.92 20.3 68.6 41 6.9 44.3
20:05 1015 29.97 844 24.92 20.1 68.1 43 7.3 45.1
20:10 1015 29.97 844 24.92 19.8 67.7 44 7.4 45.4
20:15 1015 29.97 844 24.92 19.7 67.5 46 7.8 46.1
20:20 1015 29.97 844 24.92 19.5 67.2 46 7.7 45.9
20:25 1015 29.97 844 24.92 19.4 67 46 7.6 45.7
20:30 1015 29.97 844 24.92 19.3 66.8 48 8.1 46.5
20:35 1015 29.97 844 24.92 18.9 66.1 49 8.2 46.7
20:40 1015 29.97 844 24.92 18.7 65.6 50 8.2 46.8
20:45 1015 29.97 844 24.92 18.3 65 53 8.7 47.7
20:50 1015 29.97 844 24.92 18.1 64.5 53 8.5 47.4
20:55 1015 29.97 844 24.92 18 64.3 53 8.4 47.2
21:00 1015 29.97 844 24.92 17.8 64 54 8.3 47
21:05 1015 29.97 844 24.92 17.7 63.8 54 8.4 47.1
21:10 1015 29.97 844 24.92 17.7 63.9 53 8 46.5
21:15 1015 29.97 844 24.92 17.8 64 54 8.4 47.1
21:20 1015 29.97 844 24.92 17.6 63.7 54 8.3 47
21:25 1015 29.97 844 24.92 17.4 63.3 56 8.5 47.3
21:30 1015 29.97 844 24.92 17.2 63 55 8.2 46.7
21:35 1015 29.97 844 24.92 17.2 62.9 55 8.2 46.7
21:40 1015 29.97 844 24.92 17.1 62.7 56 8.2 46.8
21:45 1015 29.97 844 24.92 17 62.6 58 8.7 47.6
21:50 1015 29.97 844 24.92 16.5 61.7 59 8.7 47.6
21:55 1015 29.97 844 24.92 15.9 60.6 61 8.5 47.3
22:00 1015 29.97 844 24.92 15.6 60.1 62 8.4 47.1
22:05 1015 29.97 844 24.92 15.5 59.8 62 8.2 46.7
22:10 1015 29.97 844 24.92 15.5 59.9 61 8.1 46.6
22:15 1015 29.97 844 24.92 15.4 59.7 62 8.2 46.7
22:20 1015 29.97 844 24.92 15.2 59.4 62 8.1 46.6
22:25 1015 29.97 844 24.92 14.7 58.4 63 7.8 46.1
22:30 1015 29.97 844 24.92 14.4 58 62 7.4 45.2
22:35 1015 29.97 844 24.92 14.3 57.8 63 7.5 45.4
22:40 1015 29.97 844 24.92 14.1 57.3 63 7.1 44.8
22:45 1015 29.97 844 24.92 14 57.3 62 7 44.5
22:50 1015 29.97 844 24.92 14 57.1 64 7.3 45.1
22:55 1015 29.97 844 24.92 13.7 56.7 63 7 44.5
23:00 1015 29.97 844 24.92 13.7 56.7 63 6.8 44.3
23:05 1015 29.97 844 24.92 13.8 56.9 62 6.7 44.1
23:10 1015 29.97 844 24.92 13.9 57 61 6.6 43.9
23:15 1014 29.94 844 24.92 13.9 57.1 61 6.6 43.8
23:20 1014 29.94 844 24.92 13.9 57.1 61 6.6 44
23:25 1014 29.94 843 24.89 13.8 56.8 61 6.6 43.8
23:30 1014 29.94 843 24.89 13.6 56.5 63 6.7 44
23:35 1014 29.94 843 24.89 13.5 56.3 61 6.3 43.3
23:40 1014 29.94 843 24.89 13.8 56.9 60 6.2 43.2
23:45 1014 29.94 843 24.89 13.7 56.7 62 6.7 44.1
23:50 1014 29.94 843 24.89 13.5 56.3 61 6.3 43.3
23:55 1014 29.94 843 24.89 13.6 56.5 60 6.1 43
24:00 1014 29.94 843 24.89 13.7 56.7 61 6.3 43.4